Latest Weather Observations for Christmas Creek

IDW60801

Issued at 8:23 am WST Monday 26 August 2019 (issued every 10 minutes, with the page automatically refreshed every 10 minutes)

About weather observations | Map of weather stations | Latest weather observations for WA | Other Formats
Station Details ID: 505049 Name: CHRISTMAS CREEK Lat: -22.36 Lon: 119.65 Height: 437.21 m
Data from the previous 72 hours. | See also: Recent months for locations in Western Australia
Date/Time
WST
Temp
°C
App
Temp
°C
Dew
Point
°C
Rel
Hum
%
Delta-T
°C
Wind Press
QNH
hPa
Press
MSL
hPa
Rain since
9am
mm
Dir  Spd
km/h
Gust
km/h
Spd
kts
Gust
kts
26/08:00am 18.1 13.9 -3.9 22 9.0 SSE 9 13 5 7 1016.9 1015.9 0.0
26/07:30am 16.4 12.2 -3.7 25 8.2 S 9 15 5 8 1016.6 1015.6 0.0
26/07:00am 15.7 11.6 -2.7 28 7.6 SSW 9 17 5 9 1016.5 1015.5 0.0
26/06:30am 15.8 12.1 -2.6 28 7.6 ENE 7 9 4 5 1016.0 1014.9 0.0
26/06:00am 14.7 11.0 -3.1 29 7.2 NE 7 7 4 4 1015.7 1014.6 0.0
26/05:30am 14.6 10.9 -2.8 30 7.1 NE 7 9 4 5 1015.3 1014.3 0.0
26/05:00am 15.4 11.4 -2.5 29 7.4 NE 9 13 5 7 1015.0 1014.0 0.0
26/04:30am 15.4 11.9 -3.0 28 7.5 NE 6 7 3 4 1014.6 1013.6 0.0
26/04:00am 14.7 11.2 -3.1 29 7.2 ENE 6 7 3 4 1014.6 1013.6 0.0
26/03:30am 14.8 11.0 -3.5 28 7.3 ENE 7 11 4 6 1014.6 1013.6 0.0
26/03:00am 14.7 10.9 -3.6 28 7.3 ENE 7 9 4 5 1014.7 1013.7 0.0
26/02:30am 16.3 12.9 -2.2 28 7.7 NNE 6 6 3 3 1014.7 1013.7 0.0
26/02:00am 16.7 13.0 -2.9 26 8.1 NNW 7 9 4 5 1014.7 1013.7 0.0
26/01:30am 17.0 13.3 -3.1 25 8.3 NNW 7 7 4 4 1014.9 1013.9 0.0
26/01:00am 18.6 13.2 -4.8 20 9.5 N 15 17 8 9 1014.8 1013.8 0.0
26/12:30am 18.9 13.9 -3.9 21 9.4 NNW 13 15 7 8 1015.1 1014.1 0.0
26/12:00am 19.5 14.1 -4.7 19 9.9 N 15 17 8 9 1015.3 1014.3 0.0
 
Date/Time
WST
Temp
°C
App
Temp
°C
Dew
Point
°C
Rel
Hum
%
Delta-T
°C
Wind Press
QNH
hPa
Press
MSL
hPa
Rain since
9am
mm
Dir  Spd
km/h
Gust
km/h
Spd
kts
Gust
kts
25/11:30pm 20.2 14.8 -4.1 19 10.1 N 15 19 8 10 1015.5 1014.5 0.0
25/11:00pm 19.9 14.8 -5.1 18 10.2 N 13 17 7 9 1015.8 1014.7 0.0
25/10:30pm 20.9 15.9 -4.3 18 10.5 N 13 17 7 9 1015.9 1014.8 0.0
25/10:00pm 20.6 15.7 -3.8 19 10.3 NNW 13 15 7 8 1015.8 1014.7 0.0
25/09:30pm 20.2 17.0 -3.4 20 10.0 NNW 4 6 2 3 1016.2 1015.1 0.0
25/09:00pm 20.3 16.5 -3.4 20 10.0 NNW 7 7 4 4 1016.3 1015.2 0.0
25/08:30pm 21.8 17.3 -3.5 18 10.8 N 11 11 6 6 1016.3 1015.2 0.0
25/08:00pm 21.8 17.6 -3.5 18 10.8 NNW 9 11 5 6 1016.2 1015.1 0.0
25/07:30pm 23.7 19.4 -4.4 15 12.0 N 9 11 5 6 1016.0 1014.9 0.0
25/07:00pm 24.0 19.8 -4.2 15 12.2 NW 9 13 5 7 1015.9 1014.8 0.0
25/06:30pm 25.6 20.9 -4.8 13 13.1 NNW 11 13 6 7 1015.5 1014.5 0.0
25/06:00pm 27.3 23.0 -4.6 12 14.0 NNW 9 13 5 7 1015.1 1014.1 0.0
25/05:30pm 28.9 22.7 -4.5 11 14.9 N 19 28 10 15 1014.7 1013.7 0.0
25/05:00pm 29.5 23.1 -5.3 10 15.4 N 20 32 11 17 1014.5 1013.5 0.0
25/04:30pm 29.9 23.7 -5.0 10 15.6 NNE 19 28 10 15 1014.4 1013.3 0.0
25/04:00pm 29.9 23.1 -5.0 10 15.6 N 22 32 12 17 1014.2 1013.1 0.0
25/03:30pm 29.9 23.7 -5.0 10 15.6 N 19 28 10 15 1014.2 1013.1 0.0
25/03:00pm 30.4 24.6 -4.6 10 15.8 N 17 35 9 19 1014.3 1013.2 0.0
25/02:30pm 29.7 23.3 -5.1 10 15.5 N 20 37 11 20 1014.5 1013.5 0.0
25/02:00pm 29.9 23.1 -5.0 10 15.6 N 22 41 12 22 1014.8 1013.8 0.0
25/01:30pm 29.6 23.5 -3.9 11 15.2 N 19 35 10 19 1015.2 1014.2 0.0
25/01:00pm 29.2 23.1 -4.3 11 15.1 NNE 19 33 10 18 1016.0 1014.9 0.0
25/12:30pm 28.6 22.0 -3.6 12 14.6 NE 22 39 12 21 1016.7 1015.7 0.0
25/12:00pm 27.9 22.0 -2.0 14 13.8 NNE 19 37 10 20 1017.3 1016.3 0.0
25/11:30am 27.3 21.9 -1.6 15 13.4 NE 17 28 9 15 1017.9 1016.9 0.0
25/11:00am 26.6 20.8 -0.4 17 12.7 ENE 20 30 11 16 1018.6 1017.6 0.0
25/10:30am 25.4 19.7 -0.6 18 12.1 ENE 19 28 10 15 1019.2 1018.2 0.0
25/10:00am 24.5 18.9 0.1 20 11.4 ENE 19 26 10 14 1019.6 1018.6 0.0
25/09:30am 23.1 17.5 0.9 23 10.5 ENE 20 28 11 15 1019.7 1018.7 0.0
25/09:00am 21.4 16.4 1.1 26 9.5 E 17 24 9 13 1019.9 1018.9 0.0
25/08:30am 20.4 14.4 0.8 27 9.0 E 22 33 12 18 1019.7 1018.7 0.0
25/08:00am 19.5 14.4 1.0 29 8.5 E 17 24 9 13 1019.5 1018.5 0.0
25/07:30am 18.5 13.8 0.6 30 8.1 E 15 22 8 12 1019.3 1018.3 0.0
25/07:00am 17.4 13.0 0.1 31 7.7 ESE 13 20 7 11 1019.0 1018.0 0.0
25/06:57am 17.3 12.8 0.0 31 7.6 ESE 13 19 7 10 1019.0 1018.0 0.0
25/06:37am 16.2 12.1 -0.5 32 7.2 ESE 11 13 6 7 1018.8 1017.8 0.0
25/06:30am 16.3 12.5 -0.8 31 7.4 E 9 13 5 7 1018.8 1017.8 0.0
25/06:00am 15.9 11.9 -2.1 29 7.5 E 9 15 5 8 1018.5 1017.4 0.0
25/05:30am 14.6 10.3 -1.9 32 6.8 ENE 11 15 6 8 1018.2 1017.1 0.0
25/05:00am 14.4 10.1 -1.6 33 6.6 ENE 11 15 6 8 1017.7 1016.7 0.0
25/04:30am 13.5 9.7 -0.9 37 6.0 E 9 11 5 6 1017.7 1016.7 0.0
25/04:00am 14.1 11.2 -1.1 35 6.4 ESE 4 9 2 5 1017.3 1016.3 0.0
25/03:30am 14.3 10.1 -0.9 35 6.4 S 11 19 6 10 1017.2 1016.2 0.0
25/03:00am 15.2 11.8 -0.9 33 6.8 WSW 7 11 4 6 1016.9 1015.9 0.0
25/02:30am 15.7 10.7 -0.9 32 7.1 WSW 15 24 8 13 1016.7 1015.7 0.0
25/02:00am 18.9 15.6 -1.5 25 8.9 NNE 6 7 3 4 1016.6 1015.6 0.0
25/01:30am 17.1 14.2 -1.1 29 7.8 SW 4 6 2 3 1016.8 1015.8 0.0
25/01:00am 17.6 14.8 -0.6 29 8.0 SSW 4 6 2 3 1017.0 1016.0 0.0
25/12:30am 19.5 17.0 -1.0 25 9.0 E 2 6 1 3 1017.0 1016.0 0.0
25/12:00am 20.9 17.0 -1.6 22 9.9 NE 9 13 5 7 1017.3 1016.3 0.0
 
Date/Time
WST
Temp
°C
App
Temp
°C
Dew
Point
°C
Rel
Hum
%
Delta-T
°C
Wind Press
QNH
hPa
Press
MSL
hPa
Rain since
9am
mm
Dir  Spd
km/h
Gust
km/h
Spd
kts
Gust
kts
24/11:30pm 21.2 16.6 -1.3 22 10.0 NE 13 15 7 8 1017.5 1016.5 0.0
24/11:00pm 21.0 17.2 -0.9 23 9.8 NE 9 11 5 6 1017.8 1016.8 0.0
24/10:30pm 19.7 16.8 -0.9 25 9.1 ENE 4 6 2 3 1018.2 1017.1 0.0
24/10:00pm 21.3 17.4 -1.3 22 10.1 NNE 9 17 5 9 1018.4 1017.3 0.0
24/09:30pm 20.6 17.4 -0.7 24 9.5 NNE 6 9 3 5 1018.5 1017.4 0.0
24/09:00pm 22.3 17.7 -1.1 21 10.5 NE 13 15 7 8 1018.6 1017.6 0.0
24/08:30pm 21.6 18.8 -0.4 23 10.0 NE 4 6 2 3 1018.6 1017.6 0.0
24/08:00pm 21.7 19.1 0.8 25 9.7 SE 4 11 2 6 1018.5 1017.4 0.0
24/07:30pm 23.1 20.7 -0.4 21 10.8 W 2 4 1 2 1018.4 1017.3 0.0
24/07:00pm 24.2 20.9 -0.9 19 11.5 S 6 7 3 4 1018.2 1017.1 0.0
24/06:30pm 24.7 21.2 -1.2 18 11.9 SSW 7 9 4 5 1017.7 1016.7 0.0
24/06:00pm 26.8 23.4 -2.0 15 13.2 SSW 6 7 3 4 1017.3 1016.3 0.0
24/05:30pm 28.4 25.1 -1.6 14 14.1 WSW 6 7 3 4 1017.1 1016.1 0.0
24/05:00pm 29.4 26.4 -1.9 13 14.7 W 4 11 2 6 1016.9 1015.9 0.0
24/04:30pm 29.0 25.4 -2.2 13 14.5 SE 7 15 4 8 1016.7 1015.7 0.0
24/04:00pm 28.8 25.2 -2.3 13 14.4 SE 7 15 4 8 1016.6 1015.6 0.0
24/03:30pm 29.2 25.8 -2.0 13 14.6 SSE 6 13 3 7 1016.7 1015.7 0.0
24/03:00pm 28.5 25.2 -1.6 14 14.1 E 6 15 3 8 1016.9 1015.9 0.0
24/02:30pm 28.4 24.1 -1.6 14 14.1 ESE 11 19 6 10 1017.1 1016.1 0.0
24/02:00pm 28.9 25.3 -2.3 13 14.5 W 7 19 4 10 1017.5 1016.5 0.0
24/01:30pm 28.4 23.6 -2.6 13 14.3 N 13 26 7 14 1017.8 1016.8 0.0
24/01:00pm 27.7 24.3 -0.4 16 13.4 E 7 17 4 9 1018.3 1017.2 0.0
24/12:30pm 26.9 22.2 0.6 18 12.7 ESE 15 24 8 13 1018.8 1017.8 0.0
24/12:00pm 26.6 22.0 1.8 20 12.2 SE 15 28 8 15 1019.4 1018.4 0.0
24/11:30am 25.3 20.4 2.1 22 11.4 SE 17 26 9 14 1020.0 1019.0 0.0
24/11:00am 25.0 20.0 3.6 25 10.7 SE 19 30 10 16 1020.3 1019.3 0.0
24/10:30am 23.7 18.7 4.6 29 9.7 SE 20 30 11 16 1020.9 1019.9 0.0
24/10:00am 22.6 17.6 4.6 31 9.0 SE 20 30 11 16 1021.3 1020.3 0.0
24/09:30am 21.3 16.0 5.2 35 8.1 SE 22 32 12 17 1021.3 1020.3 0.0
24/09:00am 20.5 15.3 5.3 37 7.6 SE 22 32 12 17 1021.5 1020.5 0.0
24/08:30am 18.9 14.0 5.0 40 6.9 SE 20 28 11 15 1021.5 1020.5 0.0
24/08:00am 17.1 12.1 4.4 43 6.1 SE 20 30 11 16 1021.3 1020.3 0.0
24/07:30am 15.5 12.1 2.0 40 6.1 SSE 9 13 5 7 1021.4 1020.4 0.0
24/07:14am 14.1 11.3 -0.4 37 6.2 SSE 4 9 2 5 1021.2 1020.2 0.0
24/07:00am 13.7 11.1 -1.9 34 6.4 SE 2 6 1 3 1021.1 1020.1 0.0
24/06:56am 13.5 10.5 -2.0 34 6.3 SE 4 6 2 3 1021.1 1020.1 0.0
24/06:30am 12.6 8.9 -4.1 31 6.5 S 6 9 3 5 1020.8 1019.8 0.0
24/06:00am 11.9 8.7 -3.4 34 5.9 SSE 4 6 2 3 1020.4 1019.4 0.0
24/05:30am 10.4 7.0 -2.3 41 5.0 S 6 6 3 3 1019.9 1018.9 0.0
24/05:00am 11.9 9.2 -2.7 36 5.8 SW 2 2 1 1 1019.6 1018.6 0.0
24/04:30am 12.3 9.6 -2.7 35 6.0 W 2 2 1 1 1019.1 1018.1 0.0
24/04:00am 12.6 9.5 -2.8 34 6.1 WNW 4 6 2 3 1018.8 1017.8 0.0
24/03:30am 13.7 10.4 -4.0 29 6.9 WNW 4 4 2 2 1018.8 1017.8 0.0
24/03:00am 13.8 10.6 -3.5 30 6.8 NW 4 6 2 3 1018.9 1017.9 0.0
24/02:30am 13.4 10.6 -3.4 31 6.6 SE 2 4 1 2 1019.0 1018.0 0.0
24/02:00am 13.7 10.9 -3.1 31 6.7 ENE 2 4 1 2 1019.0 1018.0 0.0
24/01:30am 15.0 12.1 -3.8 27 7.5 E 2 4 1 2 1019.1 1018.1 0.0
24/01:00am 17.0 13.2 -5.5 21 8.8 NE 6 7 3 4 1019.3 1018.3 0.0
24/12:30am 16.5 13.1 -5.3 22 8.6 WSW 4 13 2 7 1019.6 1018.6 0.0
24/12:00am 17.5 11.6 -5.7 20 9.1 SW 17 28 9 15 1019.6 1018.6 0.0
 
Date/Time
WST
Temp
°C
App
Temp
°C
Dew
Point
°C
Rel
Hum
%
Delta-T
°C
Wind Press
QNH
hPa
Press
MSL
hPa
Rain since
9am
mm
Dir  Spd
km/h
Gust
km/h
Spd
kts
Gust
kts
23/11:30pm 18.6 13.8 -6.2 18 9.8 NNW 11 13 6 7 1019.2 1018.2 0.0
23/11:00pm 19.0 14.2 -5.8 18 9.9 NNW 11 13 6 7 1019.2 1018.2 0.0
23/10:30pm 19.4 14.2 -6.2 17 10.2 NNW 13 15 7 8 1019.3 1018.3 0.0
23/10:00pm 19.0 13.8 -5.8 18 9.9 NNW 13 15 7 8 1019.4 1018.4 0.0
23/09:30pm 18.9 14.2 -5.2 19 9.7 NNW 11 11 6 6 1019.5 1018.5 0.0
23/09:00pm 19.2 14.6 -4.3 20 9.7 NNW 11 11 6 6 1019.5 1018.5 0.0
23/08:30pm 19.4 15.7 -4.1 20 9.7 N 6 7 3 4 1019.6 1018.6 0.0
23/08:00pm 21.7 17.8 -4.4 17 11.0 NW 7 9 4 5 1019.6 1018.6 0.0
23/07:30pm 22.3 17.9 -5.6 15 11.5 NW 9 13 5 7 1019.3 1018.3 0.0
23/07:00pm 22.8 19.0 -5.2 15 11.7 NNW 6 7 3 4 1019.0 1018.0 0.0
23/06:30pm 24.6 21.2 -5.6 13 12.8 W 4 4 2 2 1018.7 1017.7 0.0
23/06:03pm 26.1 22.1 -7.9 10 14.0 WSW 6 7 3 4 1018.5 1017.4 0.0
23/06:00pm 25.9 21.9 -8.0 10 13.8 WSW 6 7 3 4 1018.5 1017.4 0.0
23/05:49pm 26.3 22.3 -7.7 10 14.0 WSW 6 9 3 5 1018.4 1017.3 0.0
23/05:30pm 27.4 23.3 -6.9 10 14.5 WSW 7 11 4 6 1018.4 1017.3 0.0
23/05:00pm 28.1 23.1 -7.7 9 15.0 WSW 11 19 6 10 1018.2 1017.1 0.0
23/04:30pm 28.5 23.2 -7.4 9 15.2 WSW 13 30 7 16 1017.9 1016.9 0.0
23/04:00pm 28.5 23.9 -7.4 9 15.2 WNW 9 19 5 10 1017.8 1016.8 0.0
23/03:30pm 28.8 24.7 -8.7 8 15.6 WNW 6 15 3 8 1017.8 1016.8 0.0
23/03:00pm 28.7 24.4 -8.8 8 15.5 NNW 7 17 4 9 1017.9 1016.9 0.0
23/02:30pm 27.6 22.5 -9.6 8 15.0 SSE 11 20 6 11 1018.3 1017.2 0.0
23/02:00pm 28.0 22.5 -9.3 8 15.2 SW 13 24 7 13 1018.5 1017.4 0.0
23/01:30pm 28.0 23.7 -9.3 8 15.2 W 7 20 4 11 1018.8 1017.8 0.0
23/01:00pm 27.8 22.7 -9.4 8 15.1 SSW 11 26 6 14 1019.2 1018.2 0.0
23/12:30pm 27.2 22.8 -9.9 8 14.8 W 7 17 4 9 1019.7 1018.7 0.0
23/12:00pm 25.9 21.6 -9.4 9 14.0 SSE 7 19 4 10 1020.1 1019.1 0.0
23/11:30am 25.8 21.1 -9.4 9 14.0 S 9 15 5 8 1020.7 1019.7 0.0
23/11:00am 25.5 21.3 -9.7 9 13.9 SSW 6 15 3 8 1021.2 1020.2 0.0
23/10:30am 25.2 21.0 -9.9 9 13.8 S 6 13 3 7 1021.6 1020.6 0.0
23/10:00am 24.3 20.3 -8.0 11 13.0 SW 6 11 3 6 1021.9 1020.9 0.0
23/09:30am 22.1 18.4 -8.6 12 12.0 SW 4 7 2 4 1022.0 1021.0 0.0
23/09:00am 19.8 16.0 -9.4 13 10.9 ENE 4 6 2 3 1021.8 1020.8 0.0
23/08:30am 17.3 14.1 -7.2 18 9.3 ENE 2 4 1 2 1022.2 1021.2 0.0

Other formats

Comma delimited format used in spreadsheet applications
http://www.bom.gov.au/fwo/IDW60801/IDW60801.99737.axf

JavaScript Object Notation format (JSON) in row-major order
http://www.bom.gov.au/fwo/IDW60801/IDW60801.99737.json

Data quality

Most of these data are generated automatically and are frequently updated. Quality checks on data are not normally performed. It is possible for incorrect values to appear. Refer to information at About Latest Weather Observations and please check the disclaimer before using these data.